Pagina principală
METAR-TAF:

METAR-TAF

Aeroporturi :

Nampa, Idaho, Statele Unite ale Americii

Latitudine: 43-34-53N, longitudine: 116-31-23W, elevație: 773 m

Observații meteo curente

Raportul a fost făcut în urmă cu 26 de minute, la 16:35 UTC
Vânt 3 kt de la Vest/Sud-vest cu rafale de până la 10 kt
Temperatură 23°C
Umiditate 31%
Presiune 1014 hPa
Vizibilitate: 16.1 km
Cer senin

METAR: KMAN 281635Z AUTO 25003G10KT 10SM CLR 23/05 A2995 RMK A01

Ora: 11:01 (17:01 UTC)


TAF: lipsă

Observații și prognoze meteo pentru peste 4.000 de aeroporturi (rapoarte METAR și TAF).

Stațiile disponibile sunt reprezentate pe hartă prin puncte galbene și roșii.

Țineți indicatorul mouse-ului pe punctul dorit pentru a vedea denumirea stației.

Apoi, faceți clic pentru a vedea observațiile și prognozele meteorologice.

Pentru a schimba harta: Pentru mărire, faceți clic pe butoanele verzi cu cruce neagră; pentru micșorare, pe butonul verde cu o liniuță; pentru hărți învecinate, pe săgețile verzi.


METAR-TAF: